Brandon, Iowa
Current Conditions -  °F | °C
As of 7:15 AM on Friday 24 Oct 2014 (Local Time) from KVTI Reporting Station
Light Snow Light Snow  
Wind Chill: 48°   Ceiling: 100
Heat Index: 48°   Visibility: 0mi
Dew Point: 47°   Wind: 0mph
Humidity: 96%   Direction: NA
Pressure: 30.01"   Gusts: NA
Location:  42.31°N, 92°W
Report Text: KVTI 241215Z AUTO 00000KT M1/4SM -SN OVC001 09/08 A3001 RMK AO2 T00870081
Loading
Personal Weather Stations






























Interactive Weather Map
Tropical Storm Tracking
New forecast layout! Learn more

10-Day Weather Forecast

Advertisements
Track Severe Weather on mobile